< < Back
Terminal Aerodrome Forecast


Current Version              Previous Versions:   1  2  3  4  5  6  7  8  9  

Terminal Aerodrome Forecast

122
FTUS42 KCHS 280523
TAFSAV
TAF
KSAV 280523Z 2806/2906 06003KT P6SM SCT030
     FM281600 12011KT P6SM SCT040
     FM290100 12003KT P6SM FEW030=



Latest METAR

604
SAUS80 KWBC 280600 RRA
MTRSAV
METAR KSAV 280553Z AUTO 00000KT 10SM CLR 20/18 A3020 RMK AO2 SLP224
T02000183 10256 20200 58004 TSNO $


USA.gov is the U.S. government's official web portal to all federal, state and local government web resources and services.